sensor_id;sensor_type;location;lat;lon;timestamp;pressure;altitude;pressure_sealevel;temperature
74374;BMP180;62809;51.090;-115.358;2022-10-29T00:01:12;86863.00;;;22.10
74374;BMP180;62809;51.090;-115.358;2022-10-29T00:03:39;86864.40;;;22.00
74374;BMP180;62809;51.090;-115.358;2022-10-29T00:06:10;86860.20;;;22.00
74374;BMP180;62809;51.090;-115.358;2022-10-29T00:08:39;86862.60;;;22.00
74374;BMP180;62809;51.090;-115.358;2022-10-29T00:11:18;86868.00;;;22.00
74374;BMP180;62809;51.090;-115.358;2022-10-29T00:13:55;86869.80;;;21.92
74374;BMP180;62809;51.090;-115.358;2022-10-29T00:16:30;86872.60;;;21.90
74374;BMP180;62809;51.090;-115.358;2022-10-29T00:19:00;86870.80;;;21.90
74374;BMP180;62809;51.090;-115.358;2022-10-29T00:21:27;86872.60;;;21.90
74374;BMP180;62809;51.090;-115.358;2022-10-29T00:23:56;86874.00;;;21.90
74374;BMP180;62809;51.090;-115.358;2022-10-29T00:26:27;86877.00;;;21.82
74374;BMP180;62809;51.090;-115.358;2022-10-29T00:28:56;86875.00;;;21.80
74374;BMP180;62809;51.090;-115.358;2022-10-29T00:31:25;86878.40;;;21.80
74374;BMP180;62809;51.090;-115.358;2022-10-29T00:33:55;86883.60;;;21.80
74374;BMP180;62809;51.090;-115.358;2022-10-29T00:36:26;86891.80;;;21.80
74374;BMP180;62809;51.090;-115.358;2022-10-29T00:38:54;86901.00;;;21.80
74374;BMP180;62809;51.090;-115.358;2022-10-29T00:41:26;86894.40;;;21.80
74374;BMP180;62809;51.090;-115.358;2022-10-29T00:46:58;86900.60;;;21.80
74374;BMP180;62809;51.090;-115.358;2022-10-29T00:49:30;86908.00;;;21.76
74374;BMP180;62809;51.090;-115.358;2022-10-29T00:52:02;86905.80;;;21.70
74374;BMP180;62809;51.090;-115.358;2022-10-29T00:54:33;86910.20;;;21.70
74374;BMP180;62809;51.090;-115.358;2022-10-29T00:57:11;86905.20;;;21.70
74374;BMP180;62809;51.090;-115.358;2022-10-29T00:59:41;86903.40;;;21.70
74374;BMP180;62809;51.090;-115.358;2022-10-29T01:02:09;86898.20;;;21.70
74374;BMP180;62809;51.090;-115.358;2022-10-29T01:04:41;86908.00;;;21.68
74374;BMP180;62809;51.090;-115.358;2022-10-29T01:07:10;86901.80;;;21.62
74374;BMP180;62809;51.090;-115.358;2022-10-29T01:09:39;86904.60;;;21.60
74374;BMP180;62809;51.090;-115.358;2022-10-29T01:18:34;86916.80;;;21.50
74374;BMP180;62809;51.090;-115.358;2022-10-29T01:21:33;86914.40;;;21.50
74374;BMP180;62809;51.090;-115.358;2022-10-29T01:30:08;86941.00;;;21.50
74374;BMP180;62809;51.090;-115.358;2022-10-29T01:35:39;86937.20;;;21.44
74374;BMP180;62809;51.090;-115.358;2022-10-29T01:38:35;86932.20;;;21.40
74374;BMP180;62809;51.090;-115.358;2022-10-29T01:41:13;86940.00;;;21.40
74374;BMP180;62809;51.090;-115.358;2022-10-29T01:43:57;86940.40;;;21.40
74374;BMP180;62809;51.090;-115.358;2022-10-29T01:46:51;86936.80;;;21.40
74374;BMP180;62809;51.090;-115.358;2022-10-29T01:49:28;86930.40;;;21.40
74374;BMP180;62809;51.090;-115.358;2022-10-29T01:52:02;86934.60;;;21.40
74374;BMP180;62809;51.090;-115.358;2022-10-29T01:54:32;86944.00;;;21.40
74374;BMP180;62809;51.090;-115.358;2022-10-29T01:57:00;86943.40;;;21.40
74374;BMP180;62809;51.090;-115.358;2022-10-29T01:59:30;86931.00;;;21.32
74374;BMP180;62809;51.090;-115.358;2022-10-29T02:02:27;86934.00;;;21.30
74374;BMP180;62809;51.090;-115.358;2022-10-29T02:05:10;86934.20;;;21.30
74374;BMP180;62809;51.090;-115.358;2022-10-29T02:10:50;86942.60;;;21.30
74374;BMP180;62809;51.090;-115.358;2022-10-29T02:13:26;86945.80;;;21.28
74374;BMP180;62809;51.090;-115.358;2022-10-29T02:15:59;86943.60;;;21.24
74374;BMP180;62809;51.090;-115.358;2022-10-29T02:18:28;86941.20;;;21.20
74374;BMP180;62809;51.090;-115.358;2022-10-29T02:20:56;86932.60;;;21.20
74374;BMP180;62809;51.090;-115.358;2022-10-29T02:23:23;86941.80;;;21.20
74374;BMP180;62809;51.090;-115.358;2022-10-29T02:25:50;86946.40;;;21.20
74374;BMP180;62809;51.090;-115.358;2022-10-29T02:28:18;86944.20;;;21.20
74374;BMP180;62809;51.090;-115.358;2022-10-29T02:30:46;86934.00;;;21.18
74374;BMP180;62809;51.090;-115.358;2022-10-29T02:33:13;86931.60;;;21.10
74374;BMP180;62809;51.090;-115.358;2022-10-29T02:35:41;86942.00;;;21.10
74374;BMP180;62809;51.090;-115.358;2022-10-29T02:38:08;86946.00;;;21.10
74374;BMP180;62809;51.090;-115.358;2022-10-29T02:40:35;86933.40;;;21.10
74374;BMP180;62809;51.090;-115.358;2022-10-29T02:43:02;86940.80;;;21.10
74374;BMP180;62809;51.090;-115.358;2022-10-29T02:45:29;86937.20;;;21.10
74374;BMP180;62809;51.090;-115.358;2022-10-29T02:47:56;86936.40;;;21.10
74374;BMP180;62809;51.090;-115.358;2022-10-29T02:50:23;86938.40;;;21.10
74374;BMP180;62809;51.090;-115.358;2022-10-29T02:52:51;86945.00;;;21.10
74374;BMP180;62809;51.090;-115.358;2022-10-29T02:55:19;86929.60;;;21.10
74374;BMP180;62809;51.090;-115.358;2022-10-29T02:57:46;86915.80;;;21.04
74374;BMP180;62809;51.090;-115.358;2022-10-29T03:00:15;86931.40;;;21.00
74374;BMP180;62809;51.090;-115.358;2022-10-29T03:02:42;86933.00;;;21.00
74374;BMP180;62809;51.090;-115.358;2022-10-29T03:05:10;86923.20;;;21.00
74374;BMP180;62809;51.090;-115.358;2022-10-29T03:07:40;86918.20;;;21.00
74374;BMP180;62809;51.090;-115.358;2022-10-29T03:10:08;86916.40;;;21.00
74374;BMP180;62809;51.090;-115.358;2022-10-29T03:12:37;86918.20;;;20.92
74374;BMP180;62809;51.090;-115.358;2022-10-29T03:15:04;86925.00;;;20.90
74374;BMP180;62809;51.090;-115.358;2022-10-29T03:17:31;86931.20;;;20.90
74374;BMP180;62809;51.090;-115.358;2022-10-29T03:20:00;86936.20;;;20.90
74374;BMP180;62809;51.090;-115.358;2022-10-29T03:22:27;86932.80;;;20.90
74374;BMP180;62809;51.090;-115.358;2022-10-29T03:24:54;86937.00;;;20.90
74374;BMP180;62809;51.090;-115.358;2022-10-29T03:27:21;86939.20;;;20.90
74374;BMP180;62809;51.090;-115.358;2022-10-29T03:29:48;86946.20;;;20.90
74374;BMP180;62809;51.090;-115.358;2022-10-29T03:32:15;86945.20;;;20.80
74374;BMP180;62809;51.090;-115.358;2022-10-29T03:34:42;86945.80;;;20.80
74374;BMP180;62809;51.090;-115.358;2022-10-29T03:37:09;86939.40;;;20.80
74374;BMP180;62809;51.090;-115.358;2022-10-29T03:39:36;86941.40;;;20.80
74374;BMP180;62809;51.090;-115.358;2022-10-29T03:42:03;86946.20;;;20.80
74374;BMP180;62809;51.090;-115.358;2022-10-29T03:44:33;86960.00;;;20.80
74374;BMP180;62809;51.090;-115.358;2022-10-29T03:47:00;86957.20;;;20.72
74374;BMP180;62809;51.090;-115.358;2022-10-29T03:49:27;86960.00;;;20.70
74374;BMP180;62809;51.090;-115.358;2022-10-29T03:51:55;86968.20;;;20.70
74374;BMP180;62809;51.090;-115.358;2022-10-29T03:54:26;86971.60;;;20.70
74374;BMP180;62809;51.090;-115.358;2022-10-29T03:56:53;86954.80;;;20.70
74374;BMP180;62809;51.090;-115.358;2022-10-29T03:59:20;86960.00;;;20.70
74374;BMP180;62809;51.090;-115.358;2022-10-29T04:01:48;86963.40;;;20.68
74374;BMP180;62809;51.090;-115.358;2022-10-29T04:04:18;86970.80;;;20.60
74374;BMP180;62809;51.090;-115.358;2022-10-29T04:06:45;86960.00;;;20.60
74374;BMP180;62809;51.090;-115.358;2022-10-29T04:09:12;86963.40;;;20.60
74374;BMP180;62809;51.090;-115.358;2022-10-29T04:11:40;86959.40;;;20.60
74374;BMP180;62809;51.090;-115.358;2022-10-29T04:14:08;86954.20;;;20.60
74374;BMP180;62809;51.090;-115.358;2022-10-29T04:16:37;86960.00;;;20.60
74374;BMP180;62809;51.090;-115.358;2022-10-29T04:19:04;86966.20;;;20.52
74374;BMP180;62809;51.090;-115.358;2022-10-29T04:21:33;86956.60;;;20.50
74374;BMP180;62809;51.090;-115.358;2022-10-29T04:24:00;86948.60;;;20.50
74374;BMP180;62809;51.090;-115.358;2022-10-29T04:26:27;86943.60;;;20.50
74374;BMP180;62809;51.090;-115.358;2022-10-29T04:28:54;86949.00;;;20.50
74374;BMP180;62809;51.090;-115.358;2022-10-29T04:31:21;86945.80;;;20.50
74374;BMP180;62809;51.090;-115.358;2022-10-29T04:33:48;86942.40;;;20.50
74374;BMP180;62809;51.090;-115.358;2022-10-29T04:36:22;86955.00;;;20.50
74374;BMP180;62809;51.090;-115.358;2022-10-29T04:38:50;86955.00;;;20.40
74374;BMP180;62809;51.090;-115.358;2022-10-29T04:41:17;86957.20;;;20.40
74374;BMP180;62809;51.090;-115.358;2022-10-29T04:43:45;86947.20;;;20.40
74374;BMP180;62809;51.090;-115.358;2022-10-29T04:46:14;86960.80;;;20.40
74374;BMP180;62809;51.090;-115.358;2022-10-29T04:48:41;86974.40;;;20.40
74374;BMP180;62809;51.090;-115.358;2022-10-29T04:51:20;86954.20;;;20.40
74374;BMP180;62809;51.090;-115.358;2022-10-29T04:53:47;86960.60;;;20.40
74374;BMP180;62809;51.090;-115.358;2022-10-29T04:56:16;86961.80;;;20.34
74374;BMP180;62809;51.090;-115.358;2022-10-29T04:58:44;86962.20;;;20.34
74374;BMP180;62809;51.090;-115.358;2022-10-29T05:01:11;86957.40;;;20.32
74374;BMP180;62809;51.090;-115.358;2022-10-29T05:03:39;86958.80;;;20.30
74374;BMP180;62809;51.090;-115.358;2022-10-29T05:06:07;86950.00;;;20.30
74374;BMP180;62809;51.090;-115.358;2022-10-29T05:08:35;86949.40;;;20.30
74374;BMP180;62809;51.090;-115.358;2022-10-29T05:11:04;86959.20;;;20.30
74374;BMP180;62809;51.090;-115.358;2022-10-29T05:13:33;86959.00;;;20.30
74374;BMP180;62809;51.090;-115.358;2022-10-29T05:16:02;86958.20;;;20.30
74374;BMP180;62809;51.090;-115.358;2022-10-29T05:18:29;86946.60;;;20.30
74374;BMP180;62809;51.090;-115.358;2022-10-29T05:20:57;86945.40;;;20.30
74374;BMP180;62809;51.090;-115.358;2022-10-29T05:23:24;86963.80;;;20.30
74374;BMP180;62809;51.090;-115.358;2022-10-29T05:25:51;86950.00;;;20.20
74374;BMP180;62809;51.090;-115.358;2022-10-29T05:28:23;86945.80;;;20.20
74374;BMP180;62809;51.090;-115.358;2022-10-29T05:30:52;86940.40;;;20.20
74374;BMP180;62809;51.090;-115.358;2022-10-29T05:33:23;86936.20;;;20.20
74374;BMP180;62809;51.090;-115.358;2022-10-29T05:35:51;86931.60;;;20.16
74374;BMP180;62809;51.090;-115.358;2022-10-29T05:38:21;86923.40;;;20.10
74374;BMP180;62809;51.090;-115.358;2022-10-29T05:40:48;86917.60;;;20.10
74374;BMP180;62809;51.090;-115.358;2022-10-29T05:43:16;86922.40;;;20.10
74374;BMP180;62809;51.090;-115.358;2022-10-29T05:45:45;86939.60;;;20.06
74374;BMP180;62809;51.090;-115.358;2022-10-29T05:48:12;86952.00;;;20.02
74374;BMP180;62809;51.090;-115.358;2022-10-29T05:50:43;86954.40;;;20.00
74374;BMP180;62809;51.090;-115.358;2022-10-29T05:53:14;86947.80;;;20.00
74374;BMP180;62809;51.090;-115.358;2022-10-29T05:55:41;86945.60;;;20.00
74374;BMP180;62809;51.090;-115.358;2022-10-29T05:58:13;86956.60;;;20.00
74374;BMP180;62809;51.090;-115.358;2022-10-29T06:00:43;86950.20;;;20.00
74374;BMP180;62809;51.090;-115.358;2022-10-29T06:03:20;86953.20;;;19.98
74374;BMP180;62809;51.090;-115.358;2022-10-29T06:05:49;86956.40;;;19.94
74374;BMP180;62809;51.090;-115.358;2022-10-29T06:08:17;86950.40;;;19.90
74374;BMP180;62809;51.090;-115.358;2022-10-29T06:10:45;86926.20;;;19.90
74374;BMP180;62809;51.090;-115.358;2022-10-29T06:13:17;86934.80;;;19.90
74374;BMP180;62809;51.090;-115.358;2022-10-29T06:15:46;86948.60;;;19.90
74374;BMP180;62809;51.090;-115.358;2022-10-29T06:18:15;86953.00;;;19.90
74374;BMP180;62809;51.090;-115.358;2022-10-29T06:20:42;86938.80;;;19.90
74374;BMP180;62809;51.090;-115.358;2022-10-29T06:23:10;86943.20;;;19.90
74374;BMP180;62809;51.090;-115.358;2022-10-29T06:25:37;86935.80;;;19.90
74374;BMP180;62809;51.090;-115.358;2022-10-29T06:28:11;86936.20;;;19.82
74374;BMP180;62809;51.090;-115.358;2022-10-29T06:30:46;86919.60;;;19.80
74374;BMP180;62809;51.090;-115.358;2022-10-29T06:33:16;86920.60;;;19.80
74374;BMP180;62809;51.090;-115.358;2022-10-29T06:35:45;86926.00;;;19.80
74374;BMP180;62809;51.090;-115.358;2022-10-29T06:38:14;86926.00;;;19.80
74374;BMP180;62809;51.090;-115.358;2022-10-29T06:40:42;86925.00;;;19.80
74374;BMP180;62809;51.090;-115.358;2022-10-29T06:43:12;86923.20;;;19.80
74374;BMP180;62809;51.090;-115.358;2022-10-29T06:45:39;86914.40;;;19.80
74374;BMP180;62809;51.090;-115.358;2022-10-29T06:48:06;86921.20;;;19.80
74374;BMP180;62809;51.090;-115.358;2022-10-29T06:50:35;86907.40;;;19.76
74374;BMP180;62809;51.090;-115.358;2022-10-29T06:53:08;86913.20;;;19.78
74374;BMP180;62809;51.090;-115.358;2022-10-29T06:55:35;86909.20;;;19.70
74374;BMP180;62809;51.090;-115.358;2022-10-29T06:58:10;86914.40;;;19.70
74374;BMP180;62809;51.090;-115.358;2022-10-29T07:00:42;86901.60;;;19.70
74374;BMP180;62809;51.090;-115.358;2022-10-29T07:03:14;86907.20;;;19.70
74374;BMP180;62809;51.090;-115.358;2022-10-29T07:05:42;86910.80;;;19.70
74374;BMP180;62809;51.090;-115.358;2022-10-29T07:08:10;86903.40;;;19.70
74374;BMP180;62809;51.090;-115.358;2022-10-29T07:10:38;86906.00;;;19.70
74374;BMP180;62809;51.090;-115.358;2022-10-29T07:13:06;86908.60;;;19.70
74374;BMP180;62809;51.090;-115.358;2022-10-29T07:15:34;86907.80;;;19.68
74374;BMP180;62809;51.090;-115.358;2022-10-29T07:18:07;86908.80;;;19.60
74374;BMP180;62809;51.090;-115.358;2022-10-29T07:20:40;86902.60;;;19.60
74374;BMP180;62809;51.090;-115.358;2022-10-29T07:23:08;86897.20;;;19.60
74374;BMP180;62809;51.090;-115.358;2022-10-29T07:25:38;86886.20;;;19.60
74374;BMP180;62809;51.090;-115.358;2022-10-29T07:28:17;86892.00;;;19.60
74374;BMP180;62809;51.090;-115.358;2022-10-29T07:30:58;86896.80;;;19.60
74374;BMP180;62809;51.090;-115.358;2022-10-29T07:33:32;86887.20;;;19.60
74374;BMP180;62809;51.090;-115.358;2022-10-29T07:35:59;86888.60;;;19.60
74374;BMP180;62809;51.090;-115.358;2022-10-29T07:38:28;86889.60;;;19.60
74374;BMP180;62809;51.090;-115.358;2022-10-29T07:40:58;86885.00;;;19.60
74374;BMP180;62809;51.090;-115.358;2022-10-29T07:43:25;86885.60;;;19.54
74374;BMP180;62809;51.090;-115.358;2022-10-29T07:45:56;86889.00;;;19.54
74374;BMP180;62809;51.090;-115.358;2022-10-29T07:48:23;86884.80;;;19.50
74374;BMP180;62809;51.090;-115.358;2022-10-29T07:50:52;86885.00;;;19.50
74374;BMP180;62809;51.090;-115.358;2022-10-29T07:53:23;86879.60;;;19.50
74374;BMP180;62809;51.090;-115.358;2022-10-29T07:55:55;86881.40;;;19.50
74374;BMP180;62809;51.090;-115.358;2022-10-29T07:58:26;86897.80;;;19.50
74374;BMP180;62809;51.090;-115.358;2022-10-29T08:00:54;86877.20;;;19.50
74374;BMP180;62809;51.090;-115.358;2022-10-29T08:03:21;86891.60;;;19.50
74374;BMP180;62809;51.090;-115.358;2022-10-29T08:05:50;86887.20;;;19.50
74374;BMP180;62809;51.090;-115.358;2022-10-29T08:08:17;86882.00;;;19.46
74374;BMP180;62809;51.090;-115.358;2022-10-29T08:10:44;86890.80;;;19.40
74374;BMP180;62809;51.090;-115.358;2022-10-29T08:13:15;86889.20;;;19.40
74374;BMP180;62809;51.090;-115.358;2022-10-29T08:15:46;86887.00;;;19.40
74374;BMP180;62809;51.090;-115.358;2022-10-29T08:18:17;86886.40;;;19.40
74374;BMP180;62809;51.090;-115.358;2022-10-29T08:20:47;86869.40;;;19.40
74374;BMP180;62809;51.090;-115.358;2022-10-29T08:23:18;86875.80;;;19.40
74374;BMP180;62809;51.090;-115.358;2022-10-29T08:25:45;86870.00;;;19.40
74374;BMP180;62809;51.090;-115.358;2022-10-29T08:28:15;86865.80;;;19.40
74374;BMP180;62809;51.090;-115.358;2022-10-29T08:30:48;86867.60;;;19.40
74374;BMP180;62809;51.090;-115.358;2022-10-29T08:33:18;86881.40;;;19.30
74374;BMP180;62809;51.090;-115.358;2022-10-29T08:35:48;86877.00;;;19.30
74374;BMP180;62809;51.090;-115.358;2022-10-29T08:38:15;86857.60;;;19.30
74374;BMP180;62809;51.090;-115.358;2022-10-29T08:43:52;86866.20;;;19.30
74374;BMP180;62809;51.090;-115.358;2022-10-29T08:46:55;86870.20;;;19.30
74374;BMP180;62809;51.090;-115.358;2022-10-29T08:52:26;86852.40;;;19.30
74374;BMP180;62809;51.090;-115.358;2022-10-29T08:57:54;86846.80;;;19.30
74374;BMP180;62809;51.090;-115.358;2022-10-29T09:00:32;86854.60;;;19.30
74374;BMP180;62809;51.090;-115.358;2022-10-29T09:03:01;86861.00;;;19.30
74374;BMP180;62809;51.090;-115.358;2022-10-29T09:08:45;86832.60;;;19.28
74374;BMP180;62809;51.090;-115.358;2022-10-29T09:11:32;86833.20;;;19.24
74374;BMP180;62809;51.090;-115.358;2022-10-29T09:14:28;86855.40;;;19.22
74374;BMP180;62809;51.090;-115.358;2022-10-29T09:20:33;86847.00;;;19.20
74374;BMP180;62809;51.090;-115.358;2022-10-29T09:23:25;86852.20;;;19.20
74374;BMP180;62809;51.090;-115.358;2022-10-29T09:26:17;86863.40;;;19.20
74374;BMP180;62809;51.090;-115.358;2022-10-29T09:32:12;86885.60;;;19.20
74374;BMP180;62809;51.090;-115.358;2022-10-29T09:37:23;86881.80;;;19.20
74374;BMP180;62809;51.090;-115.358;2022-10-29T09:39:57;86880.80;;;19.20
74374;BMP180;62809;51.090;-115.358;2022-10-29T09:42:38;86886.20;;;19.20
74374;BMP180;62809;51.090;-115.358;2022-10-29T09:45:13;86877.60;;;19.20
74374;BMP180;62809;51.090;-115.358;2022-10-29T09:48:06;86879.20;;;19.20
74374;BMP180;62809;51.090;-115.358;2022-10-29T09:53:35;86884.80;;;19.20
74374;BMP180;62809;51.090;-115.358;2022-10-29T09:56:07;86883.40;;;19.20
74374;BMP180;62809;51.090;-115.358;2022-10-29T09:58:41;86891.80;;;19.20
74374;BMP180;62809;51.090;-115.358;2022-10-29T10:01:10;86890.00;;;19.14
74374;BMP180;62809;51.090;-115.358;2022-10-29T10:03:49;86891.20;;;19.12
74374;BMP180;62809;51.090;-115.358;2022-10-29T10:06:19;86888.00;;;19.12
74374;BMP180;62809;51.090;-115.358;2022-10-29T10:09:05;86882.40;;;19.10
74374;BMP180;62809;51.090;-115.358;2022-10-29T10:11:49;86875.00;;;19.10
74374;BMP180;62809;51.090;-115.358;2022-10-29T10:14:22;86877.60;;;19.10
74374;BMP180;62809;51.090;-115.358;2022-10-29T10:17:00;86893.60;;;19.10
74374;BMP180;62809;51.090;-115.358;2022-10-29T10:19:31;86887.80;;;19.10
74374;BMP180;62809;51.090;-115.358;2022-10-29T10:22:04;86877.80;;;19.10
74374;BMP180;62809;51.090;-115.358;2022-10-29T10:24:37;86886.00;;;19.10
74374;BMP180;62809;51.090;-115.358;2022-10-29T10:27:29;86885.80;;;19.10
74374;BMP180;62809;51.090;-115.358;2022-10-29T10:30:12;86881.60;;;19.10
74374;BMP180;62809;51.090;-115.358;2022-10-29T10:32:41;86878.20;;;19.10
74374;BMP180;62809;51.090;-115.358;2022-10-29T10:35:35;86886.80;;;19.10
74374;BMP180;62809;51.090;-115.358;2022-10-29T10:38:11;86884.00;;;19.10
74374;BMP180;62809;51.090;-115.358;2022-10-29T10:40:42;86890.80;;;19.10
74374;BMP180;62809;51.090;-115.358;2022-10-29T10:43:21;86900.20;;;19.10
74374;BMP180;62809;51.090;-115.358;2022-10-29T10:45:57;86903.80;;;19.10
74374;BMP180;62809;51.090;-115.358;2022-10-29T10:48:27;86908.20;;;19.10
74374;BMP180;62809;51.090;-115.358;2022-10-29T10:51:22;86915.80;;;19.10
74374;BMP180;62809;51.090;-115.358;2022-10-29T10:53:52;86905.40;;;19.10
74374;BMP180;62809;51.090;-115.358;2022-10-29T10:56:22;86902.40;;;19.10
74374;BMP180;62809;51.090;-115.358;2022-10-29T10:59:05;86905.20;;;19.10
74374;BMP180;62809;51.090;-115.358;2022-10-29T11:01:41;86910.00;;;19.10
74374;BMP180;62809;51.090;-115.358;2022-10-29T11:06:49;86920.60;;;19.10
74374;BMP180;62809;51.090;-115.358;2022-10-29T11:09:31;86906.60;;;19.10
74374;BMP180;62809;51.090;-115.358;2022-10-29T11:12:11;86919.00;;;19.10
74374;BMP180;62809;51.090;-115.358;2022-10-29T11:15:05;86914.60;;;19.10
74374;BMP180;62809;51.090;-115.358;2022-10-29T11:17:58;86925.80;;;19.10
74374;BMP180;62809;51.090;-115.358;2022-10-29T11:20:31;86925.60;;;19.10
74374;BMP180;62809;51.090;-115.358;2022-10-29T11:25:59;86913.60;;;19.10
74374;BMP180;62809;51.090;-115.358;2022-10-29T11:28:51;86915.00;;;19.10
74374;BMP180;62809;51.090;-115.358;2022-10-29T11:31:38;86922.80;;;19.10
74374;BMP180;62809;51.090;-115.358;2022-10-29T11:34:24;86920.40;;;19.10
74374;BMP180;62809;51.090;-115.358;2022-10-29T11:37:20;86894.80;;;19.06
74374;BMP180;62809;51.090;-115.358;2022-10-29T11:39:58;86894.00;;;19.00
74374;BMP180;62809;51.090;-115.358;2022-10-29T11:42:25;86917.80;;;19.00
74374;BMP180;62809;51.090;-115.358;2022-10-29T11:44:53;86922.00;;;19.00
74374;BMP180;62809;51.090;-115.358;2022-10-29T11:48:04;86918.00;;;19.00
74374;BMP180;62809;51.090;-115.358;2022-10-29T11:51:00;86934.80;;;19.00
74374;BMP180;62809;51.090;-115.358;2022-10-29T12:02:25;86933.40;;;19.02
74374;BMP180;62809;51.090;-115.358;2022-10-29T12:08:17;86957.20;;;19.00
74374;BMP180;62809;51.090;-115.358;2022-10-29T12:19:04;86943.00;;;19.00
74374;BMP180;62809;51.090;-115.358;2022-10-29T12:21:56;86954.00;;;19.00
74374;BMP180;62809;51.090;-115.358;2022-10-29T12:27:20;86952.20;;;19.00
74374;BMP180;62809;51.090;-115.358;2022-10-29T12:38:38;86974.60;;;19.00
74374;BMP180;62809;51.090;-115.358;2022-10-29T12:47:06;86985.80;;;19.00
74374;BMP180;62809;51.090;-115.358;2022-10-29T12:50:05;86990.00;;;19.00
74374;BMP180;62809;51.090;-115.358;2022-10-29T12:52:48;86984.40;;;19.00
74374;BMP180;62809;51.090;-115.358;2022-10-29T12:55:19;86982.60;;;19.00
74374;BMP180;62809;51.090;-115.358;2022-10-29T12:57:46;86987.00;;;19.00
74374;BMP180;62809;51.090;-115.358;2022-10-29T13:02:53;86989.20;;;19.00
74374;BMP180;62809;51.090;-115.358;2022-10-29T13:05:42;86982.80;;;18.94
74374;BMP180;62809;51.090;-115.358;2022-10-29T13:08:23;86978.60;;;18.90
74374;BMP180;62809;51.090;-115.358;2022-10-29T13:10:54;86993.40;;;18.90
74374;BMP180;62809;51.090;-115.358;2022-10-29T13:13:37;86991.40;;;18.90
74374;BMP180;62809;51.090;-115.358;2022-10-29T13:16:24;86989.00;;;18.92
74374;BMP180;62809;51.090;-115.358;2022-10-29T13:19:16;87003.20;;;18.90
74374;BMP180;62809;51.090;-115.358;2022-10-29T13:22:05;87002.00;;;18.90
74374;BMP180;62809;51.090;-115.358;2022-10-29T13:24:34;87000.40;;;18.92
74374;BMP180;62809;51.090;-115.358;2022-10-29T13:30:26;87006.00;;;18.92
74374;BMP180;62809;51.090;-115.358;2022-10-29T13:32:55;87006.20;;;18.92
74374;BMP180;62809;51.090;-115.358;2022-10-29T13:37:53;87009.60;;;18.90
74374;BMP180;62809;51.090;-115.358;2022-10-29T13:40:36;87012.20;;;18.90
74374;BMP180;62809;51.090;-115.358;2022-10-29T13:43:21;87011.20;;;18.90
74374;BMP180;62809;51.090;-115.358;2022-10-29T13:46:05;87013.60;;;18.90
74374;BMP180;62809;51.090;-115.358;2022-10-29T13:48:41;86999.00;;;18.90
74374;BMP180;62809;51.090;-115.358;2022-10-29T13:51:19;87003.80;;;18.90
74374;BMP180;62809;51.090;-115.358;2022-10-29T13:54:17;87007.00;;;18.90
74374;BMP180;62809;51.090;-115.358;2022-10-29T13:56:59;87016.20;;;18.90
74374;BMP180;62809;51.090;-115.358;2022-10-29T13:59:44;86994.80;;;18.90
74374;BMP180;62809;51.090;-115.358;2022-10-29T14:05:28;87025.00;;;18.90
74374;BMP180;62809;51.090;-115.358;2022-10-29T14:10:43;86993.00;;;18.90
74374;BMP180;62809;51.090;-115.358;2022-10-29T14:13:34;86982.80;;;18.90
74374;BMP180;62809;51.090;-115.358;2022-10-29T14:23:59;86958.60;;;18.90
74374;BMP180;62809;51.090;-115.358;2022-10-29T14:26:31;86949.40;;;18.90
74374;BMP180;62809;51.090;-115.358;2022-10-29T14:29:23;86947.40;;;18.90
74374;BMP180;62809;51.090;-115.358;2022-10-29T14:32:14;86944.40;;;18.90
74374;BMP180;62809;51.090;-115.358;2022-10-29T14:34:49;86918.80;;;18.90
74374;BMP180;62809;51.090;-115.358;2022-10-29T14:37:34;86901.80;;;18.90
74374;BMP180;62809;51.090;-115.358;2022-10-29T14:40:18;86899.20;;;18.90
74374;BMP180;62809;51.090;-115.358;2022-10-29T14:42:52;86884.20;;;18.90
74374;BMP180;62809;51.090;-115.358;2022-10-29T14:48:06;86880.40;;;18.90
74374;BMP180;62809;51.090;-115.358;2022-10-29T14:50:35;86851.80;;;18.88
74374;BMP180;62809;51.090;-115.358;2022-10-29T14:55:50;86831.80;;;18.82
74374;BMP180;62809;51.090;-115.358;2022-10-29T14:58:28;86821.00;;;18.86
74374;BMP180;62809;51.090;-115.358;2022-10-29T15:01:02;86832.60;;;18.86
74374;BMP180;62809;51.090;-115.358;2022-10-29T15:03:33;86820.40;;;18.86
74374;BMP180;62809;51.090;-115.358;2022-10-29T15:08:43;86790.20;;;18.82
74374;BMP180;62809;51.090;-115.358;2022-10-29T15:11:39;86801.60;;;18.80
74374;BMP180;62809;51.090;-115.358;2022-10-29T15:14:52;86779.00;;;18.80
74374;BMP180;62809;51.090;-115.358;2022-10-29T15:17:25;86791.80;;;18.80
74374;BMP180;62809;51.090;-115.358;2022-10-29T15:19:58;86781.80;;;18.80
74374;BMP180;62809;51.090;-115.358;2022-10-29T15:22:36;86783.00;;;18.80
74374;BMP180;62809;51.090;-115.358;2022-10-29T15:25:15;86796.80;;;18.80
74374;BMP180;62809;51.090;-115.358;2022-10-29T15:27:53;86801.40;;;18.80
74374;BMP180;62809;51.090;-115.358;2022-10-29T15:30:31;86800.00;;;18.80
74374;BMP180;62809;51.090;-115.358;2022-10-29T15:33:03;86811.20;;;18.80
74374;BMP180;62809;51.090;-115.358;2022-10-29T15:35:44;86802.00;;;18.80
74374;BMP180;62809;51.090;-115.358;2022-10-29T15:39:17;86809.20;;;18.80
74374;BMP180;62809;51.090;-115.358;2022-10-29T15:41:50;86821.80;;;18.80
74374;BMP180;62809;51.090;-115.358;2022-10-29T15:44:37;86845.00;;;18.80
74374;BMP180;62809;51.090;-115.358;2022-10-29T15:47:28;86823.40;;;18.80
74374;BMP180;62809;51.090;-115.358;2022-10-29T15:49:55;86836.00;;;18.80
74374;BMP180;62809;51.090;-115.358;2022-10-29T15:52:35;86840.00;;;18.80
74374;BMP180;62809;51.090;-115.358;2022-10-29T15:55:21;86838.20;;;18.80
74374;BMP180;62809;51.090;-115.358;2022-10-29T15:57:50;86830.40;;;18.80
74374;BMP180;62809;51.090;-115.358;2022-10-29T16:00:22;86839.00;;;18.80
74374;BMP180;62809;51.090;-115.358;2022-10-29T16:02:53;86846.80;;;18.80
74374;BMP180;62809;51.090;-115.358;2022-10-29T16:05:21;86850.20;;;18.80
74374;BMP180;62809;51.090;-115.358;2022-10-29T16:07:48;86857.20;;;18.80